Time;durP1;ratioP1;P1;durP2;ratioP2;P2;SDS_P1;SDS_P2;PMS_P1;PMS_P2;Temp;Humidity;BMP_temperature;BMP_pressure;BME280_temperature;BME280_humidity;BME280_pressure;Samples;Min_cycle;Max_cycle;Signal;HPM_P1;HPM_P2
2021/07/15 00:02:20;;;;;;;0.30;0.30;;;16.40;99.90;;;;;;6236082;28;20147;-78
2021/07/15 00:05:22;;;;;;;1.17;0.30;;;16.40;99.90;;;;;;6237776;28;20111;-78
2021/07/15 00:08:28;;;;;;;1.75;0.32;;;16.40;99.90;;;;;;6232879;28;20046;-78
2021/07/15 00:11:30;;;;;;;1.83;0.30;;;16.40;99.90;;;;;;6235504;28;20041;-78
2021/07/15 00:14:32;;;;;;;0.50;0.50;;;16.50;99.90;;;;;;6236454;28;20061;-79
2021/07/15 00:17:34;;;;;;;0.60;0.60;;;16.40;99.90;;;;;;6235147;28;20458;-78
2021/07/15 00:20:37;;;;;;;0.75;0.30;;;16.40;99.90;;;;;;6237303;28;20081;-78
2021/07/15 00:23:41;;;;;;;1.88;0.30;;;16.50;99.90;;;;;;6240854;28;20047;-78
2021/07/15 00:26:43;;;;;;;0.30;0.30;;;16.50;99.90;;;;;;6240240;28;20042;-79
2021/07/15 00:29:45;;;;;;;2.30;0.30;;;16.40;99.90;;;;;;6240577;28;20058;-78
2021/07/15 00:32:47;;;;;;;0.68;0.40;;;16.40;99.90;;;;;;6241077;28;20073;-78
2021/07/15 00:35:49;;;;;;;1.30;0.40;;;16.40;99.90;;;;;;6241092;28;20046;-78
2021/07/15 00:38:52;;;;;;;0.50;0.40;;;16.40;99.90;;;;;;6239895;28;20104;-78
2021/07/15 00:41:54;;;;;;;0.20;0.20;;;16.40;99.90;;;;;;6239343;28;20042;-78
2021/07/15 00:44:56;;;;;;;0.98;0.43;;;16.40;99.90;;;;;;6239331;28;20046;-78
2021/07/15 00:47:58;;;;;;;0.30;0.30;;;16.40;99.90;;;;;;6239213;28;20065;-77
2021/07/15 00:51:00;;;;;;;0.85;0.40;;;16.40;99.90;;;;;;6239327;28;20046;-79
2021/07/15 00:54:03;;;;;;;0.40;0.40;;;16.40;99.90;;;;;;6239721;28;20053;-78
2021/07/15 00:57:06;;;;;;;0.30;0.30;;;16.40;99.90;;;;;;6239055;28;20096;-79
2021/07/15 01:00:10;;;;;;;0.45;0.45;;;16.30;99.90;;;;;;6238152;28;20100;-78
2021/07/15 01:03:13;;;;;;;1.75;0.40;;;16.30;99.90;;;;;;6239053;28;20088;-79
2021/07/15 01:06:16;;;;;;;0.43;0.40;;;16.30;99.90;;;;;;6241387;28;20136;-78
2021/07/15 01:09:20;;;;;;;1.95;0.45;;;16.30;99.90;;;;;;6243161;28;20081;-78
2021/07/15 01:12:37;;;;;;;1.48;0.40;;;16.30;99.90;;;;;;6241034;28;20065;-78
2021/07/15 01:15:46;;;;;;;0.50;0.50;;;16.30;99.90;;;;;;6242745;28;20550;-78
2021/07/15 01:18:57;;;;;;;0.55;0.55;;;16.30;99.90;;;;;;6245596;28;20125;-78
2021/07/15 01:22:07;;;;;;;1.40;0.32;;;16.30;99.90;;;;;;6244639;28;20622;-78
2021/07/15 01:25:41;;;;;;;1.75;0.40;;;16.30;99.90;;;;;;6245355;28;20050;-78
2021/07/15 01:29:14;;;;;;;0.47;0.47;;;16.30;99.90;;;;;;6243691;28;20339;-78
2021/07/15 01:32:21;;;;;;;0.35;0.20;;;16.30;99.90;;;;;;6226427;28;20604;-78
2021/07/15 01:35:28;;;;;;;1.20;0.90;;;16.30;99.90;;;;;;6240610;28;20132;-78
2021/07/15 01:38:34;;;;;;;0.35;0.35;;;16.30;99.90;;;;;;6238450;28;20129;-77
2021/07/15 01:41:40;;;;;;;0.55;0.40;;;16.30;99.90;;;;;;6239368;28;20107;-78
2021/07/15 01:44:43;;;;;;;1.85;0.40;;;16.30;99.90;;;;;;6241151;28;20045;-79
2021/07/15 01:47:46;;;;;;;0.30;0.30;;;16.30;99.90;;;;;;6238548;28;20042;-79
2021/07/15 01:50:49;;;;;;;0.63;0.40;;;16.30;99.90;;;;;;6240254;28;20057;-79
2021/07/15 01:53:52;;;;;;;0.65;0.65;;;16.30;99.90;;;;;;6239330;28;20488;-79
2021/07/15 01:56:55;;;;;;;0.63;0.55;;;16.30;99.90;;;;;;6237157;28;20052;-78
2021/07/15 01:59:59;;;;;;;0.95;0.45;;;16.30;99.90;;;;;;6235417;28;20073;-78
2021/07/15 02:03:05;;;;;;;1.35;0.70;;;16.30;99.90;;;;;;6232222;28;20050;-78
2021/07/15 02:06:09;;;;;;;0.38;0.35;;;16.30;99.90;;;;;;6232620;28;20101;-78
2021/07/15 02:09:12;;;;;;;0.32;0.32;;;16.40;99.90;;;;;;6232380;28;20077;-77
2021/07/15 02:12:14;;;;;;;1.50;0.40;;;16.40;99.90;;;;;;6224794;28;20046;-78
2021/07/15 02:15:16;;;;;;;0.95;0.45;;;16.30;99.90;;;;;;6224160;28;20203;-78
2021/07/15 02:18:22;;;;;;;0.40;0.40;;;16.30;99.90;;;;;;6224341;28;20046;-77
2021/07/15 02:21:24;;;;;;;1.23;0.70;;;16.30;99.90;;;;;;6224590;28;20103;-78
2021/07/15 02:24:29;;;;;;;0.60;0.40;;;16.30;99.90;;;;;;6224329;28;20046;-78
2021/07/15 02:27:32;;;;;;;0.60;0.60;;;16.30;99.90;;;;;;6223785;28;20423;-77
2021/07/15 02:30:34;;;;;;;2.90;0.80;;;16.40;99.90;;;;;;6224222;28;20054;-77
2021/07/15 02:33:39;;;;;;;2.80;0.60;;;16.30;99.90;;;;;;6225059;28;20414;-77
2021/07/15 02:36:42;;;;;;;0.47;0.47;;;16.30;99.90;;;;;;6223793;28;20123;-78
2021/07/15 02:39:44;;;;;;;0.57;0.32;;;16.30;99.90;;;;;;6223817;28;20068;-77
2021/07/15 02:42:47;;;;;;;1.38;0.40;;;16.30;99.90;;;;;;6223511;28;20096;-78
2021/07/15 02:45:49;;;;;;;2.50;0.85;;;16.30;99.90;;;;;;6223684;28;20100;-77
2021/07/15 02:48:52;;;;;;;0.95;0.88;;;16.30;99.90;;;;;;6223463;28;20049;-77
2021/07/15 02:51:54;;;;;;;2.33;1.05;;;16.30;99.90;;;;;;6223507;28;20037;-78
2021/07/15 02:54:56;;;;;;;2.03;0.57;;;16.40;99.90;;;;;;6223451;28;20050;-76
2021/07/15 02:58:03;;;;;;;2.53;0.95;;;16.40;99.90;;;;;;6223783;28;20140;-78
2021/07/15 03:01:09;;;;;;;0.73;0.60;;;16.40;99.90;;;;;;6223302;28;20081;-78
2021/07/15 03:04:22;;;;;;;0.32;0.32;;;16.40;99.90;;;;;;6223210;28;20096;-78
2021/07/15 03:07:26;;;;;;;0.85;0.40;;;16.40;99.90;;;;;;6222756;28;20393;-77
2021/07/15 03:10:28;;;;;;;1.25;0.43;;;16.40;99.90;;;;;;6223054;28;20041;-78
2021/07/15 03:13:31;;;;;;;0.47;0.40;;;16.40;99.90;;;;;;6223251;28;20140;-78
2021/07/15 03:16:35;;;;;;;0.40;0.40;;;16.40;99.90;;;;;;6222665;28;20140;-78
2021/07/15 03:19:41;;;;;;;0.50;0.50;;;16.40;99.90;;;;;;6222672;28;20116;-78
2021/07/15 03:22:47;;;;;;;0.50;0.50;;;16.40;99.90;;;;;;6223024;28;20037;-77
2021/07/15 03:25:51;;;;;;;0.30;0.30;;;16.40;99.90;;;;;;6222854;28;20136;-78
2021/07/15 03:28:54;;;;;;;0.30;0.30;;;16.50;99.90;;;;;;6222497;28;20123;-78
2021/07/15 03:31:56;;;;;;;0.55;0.30;;;16.40;99.90;;;;;;6222742;28;20169;-77
2021/07/15 03:35:00;;;;;;;0.63;0.30;;;16.40;99.90;;;;;;6222486;28;20120;-77
2021/07/15 03:38:04;;;;;;;0.40;0.40;;;16.40;99.90;;;;;;6221838;28;20513;-76
2021/07/15 03:41:06;;;;;;;1.05;0.40;;;16.40;99.90;;;;;;6222634;28;20059;-77
2021/07/15 03:44:09;;;;;;;2.72;0.32;;;16.40;99.90;;;;;;6222252;28;20580;-77
2021/07/15 03:47:12;;;;;;;4.80;0.50;;;16.40;99.90;;;;;;6221838;28;20537;-76
2021/07/15 03:50:15;;;;;;;1.83;0.40;;;16.40;99.90;;;;;;6222211;28;20143;-76
2021/07/15 03:53:18;;;;;;;0.47;0.47;;;16.40;99.90;;;;;;6222437;28;20045;-76
2021/07/15 03:56:21;;;;;;;2.00;0.40;;;16.30;99.90;;;;;;6221684;28;20054;-77
2021/07/15 03:59:26;;;;;;;0.30;0.30;;;16.30;99.90;;;;;;6221901;28;20049;-77
2021/07/15 04:02:30;;;;;;;0.30;0.30;;;16.30;99.90;;;;;;6221940;28;20573;-77
2021/07/15 04:05:37;;;;;;;2.60;0.80;;;16.40;99.90;;;;;;6222127;28;20503;-77
2021/07/15 04:08:42;;;;;;;1.98;0.43;;;16.30;99.90;;;;;;6221903;28;20050;-77
2021/07/15 04:11:47;;;;;;;3.92;0.52;;;16.30;99.90;;;;;;6221923;28;20042;-77
2021/07/15 04:15:09;;;;;;;4.25;0.50;;;16.30;99.90;;;;;;6222433;28;20044;-77
2021/07/15 04:18:13;;;;;;;1.92;0.60;;;16.40;99.90;;;;;;6219269;28;20419;-76
2021/07/15 04:21:18;;;;;;;0.57;0.57;;;16.40;99.90;;;;;;6222160;28;20486;-76
2021/07/15 04:24:21;;;;;;;1.33;0.50;;;16.40;99.90;;;;;;6221719;28;20048;-77
2021/07/15 04:27:25;;;;;;;2.30;1.70;;;16.40;99.90;;;;;;6221340;28;20458;-76
2021/07/15 04:30:28;;;;;;;2.05;0.70;;;16.40;99.90;;;;;;6221756;28;20042;-76
2021/07/15 04:33:31;;;;;;;0.88;0.75;;;16.40;99.90;;;;;;6221908;28;20068;-77
2021/07/15 04:36:35;;;;;;;1.63;0.77;;;16.40;99.90;;;;;;6221698;28;20042;-77
2021/07/15 04:39:39;;;;;;;0.95;0.50;;;16.40;99.90;;;;;;6221358;28;20192;-77
2021/07/15 04:42:41;;;;;;;1.83;0.90;;;16.40;99.90;;;;;;6221907;28;20045;-77
2021/07/15 04:45:44;;;;;;;5.10;0.82;;;16.40;99.90;;;;;;6221423;28;20212;-77
2021/07/15 04:48:47;;;;;;;2.15;0.63;;;16.40;99.90;;;;;;6221392;28;20052;-77
2021/07/15 04:51:51;;;;;;;1.95;0.70;;;16.40;99.90;;;;;;6225102;28;20140;-76
2021/07/15 04:54:54;;;;;;;1.02;0.50;;;16.40;99.90;;;;;;6226029;28;20072;-77
2021/07/15 04:57:57;;;;;;;0.70;0.50;;;16.50;99.90;;;;;;6226734;28;20052;-77
2021/07/15 05:00:59;;;;;;;0.60;0.50;;;16.50;99.90;;;;;;6225693;28;20132;-76
2021/07/15 05:04:01;;;;;;;2.75;0.73;;;16.50;99.90;;;;;;6225899;28;20120;-76
2021/07/15 05:07:05;;;;;;;2.70;0.75;;;16.50;99.90;;;;;;6225382;28;20073;-76
2021/07/15 05:10:08;;;;;;;1.63;1.13;;;16.60;99.90;;;;;;6225342;28;20132;-77
2021/07/15 05:13:11;;;;;;;5.45;1.58;;;16.60;99.90;;;;;;6226282;28;20180;-77
2021/07/15 05:16:12;;;;;;;2.58;1.10;;;16.70;99.90;;;;;;6225498;28;20069;-77
2021/07/15 05:19:14;;;;;;;2.85;1.00;;;16.70;99.90;;;;;;6225722;28;20125;-76
2021/07/15 05:22:18;;;;;;;7.57;0.98;;;16.70;99.90;;;;;;6225387;28;20096;-76
2021/07/15 05:25:19;;;;;;;2.33;1.48;;;16.80;99.90;;;;;;6225898;28;20397;-77
2021/07/15 05:28:22;;;;;;;2.85;1.00;;;16.80;99.90;;;;;;6225174;28;20125;-76
2021/07/15 05:31:26;;;;;;;3.10;1.08;;;16.90;99.90;;;;;;6225681;28;20099;-76
2021/07/15 05:34:28;;;;;;;2.28;0.73;;;16.90;99.90;;;;;;6225364;28;20042;-76
2021/07/15 05:37:31;;;;;;;3.15;1.40;;;17.00;99.90;;;;;;6225278;28;20092;-77
2021/07/15 05:40:34;;;;;;;3.83;0.73;;;17.10;99.90;;;;;;6225062;28;20116;-76
2021/07/15 05:43:35;;;;;;;1.25;0.60;;;17.20;99.90;;;;;;6224922;28;20520;-77
2021/07/15 05:46:37;;;;;;;7.20;0.95;;;17.20;99.90;;;;;;6225247;28;20065;-77
2021/07/15 05:49:39;;;;;;;0.80;0.80;;;17.20;99.90;;;;;;6224900;28;20049;-77
2021/07/15 05:52:42;;;;;;;1.58;0.85;;;17.20;99.90;;;;;;6224675;28;20037;-77
2021/07/15 05:55:44;;;;;;;6.53;1.20;;;17.20;99.90;;;;;;6224323;28;20423;-77
2021/07/15 05:58:46;;;;;;;2.92;0.68;;;17.20;99.90;;;;;;6224828;28;20124;-78
2021/07/15 06:01:48;;;;;;;3.00;1.15;;;17.30;99.90;;;;;;6224613;28;20512;-77
2021/07/15 06:04:49;;;;;;;1.02;0.95;;;17.30;99.90;;;;;;6218047;28;20200;-77
2021/07/15 06:07:53;;;;;;;1.65;1.33;;;17.30;99.90;;;;;;6223817;28;20499;-77
2021/07/15 06:10:54;;;;;;;2.10;1.35;;;17.40;99.90;;;;;;6223810;28;20099;-77
2021/07/15 06:13:56;;;;;;;1.60;1.20;;;17.40;99.90;;;;;;6224575;28;20041;-77
2021/07/15 06:16:58;;;;;;;1.38;1.27;;;17.50;99.90;;;;;;6224090;28;20077;-77
2021/07/15 06:20:00;;;;;;;4.13;1.40;;;17.60;99.90;;;;;;6224324;28;20049;-77
2021/07/15 06:23:05;;;;;;;2.67;1.02;;;17.70;99.90;;;;;;6223765;28;20048;-77
2021/07/15 06:26:06;;;;;;;1.13;0.88;;;17.80;99.90;;;;;;6224681;28;20049;-77
2021/07/15 06:29:08;;;;;;;3.35;1.33;;;18.00;99.90;;;;;;6225190;28;20487;-77
2021/07/15 06:32:10;;;;;;;2.63;1.20;;;18.10;99.90;;;;;;6225192;28;20132;-77
2021/07/15 06:35:12;;;;;;;2.00;1.35;;;18.10;99.90;;;;;;6224792;28;20115;-77
2021/07/15 06:38:16;;;;;;;1.33;1.23;;;18.20;99.90;;;;;;6225124;28;20105;-77
2021/07/15 06:41:17;;;;;;;5.32;2.10;;;18.20;99.90;;;;;;6200969;28;20047;-77
2021/07/15 06:44:19;;;;;;;1.67;1.25;;;18.30;99.90;;;;;;6200869;28;20125;-76
2021/07/15 06:47:21;;;;;;;2.25;1.25;;;18.50;99.90;;;;;;6199530;28;20040;-77
2021/07/15 06:50:23;;;;;;;2.95;1.15;;;18.70;99.90;;;;;;6199088;28;20050;-77
2021/07/15 06:53:26;;;;;;;0.93;0.88;;;19.00;99.90;;;;;;6198956;28;20451;-77
2021/07/15 06:56:28;;;;;;;2.65;1.15;;;19.20;99.90;;;;;;6198450;28;20535;-77
2021/07/15 06:59:30;;;;;;;1.33;1.00;;;19.00;99.90;;;;;;6198853;28;20104;-77
2021/07/15 07:02:31;;;;;;;1.73;0.88;;;19.00;99.90;;;;;;6198852;28;20046;-77
2021/07/15 07:05:33;;;;;;;1.33;1.02;;;19.00;99.90;;;;;;6199152;28;20100;-77
2021/07/15 07:08:37;;;;;;;1.52;0.90;;;18.90;99.90;;;;;;6198633;28;20058;-77
2021/07/15 07:11:38;;;;;;;2.35;0.90;;;18.80;99.90;;;;;;6198595;28;20527;-77
2021/07/15 07:14:40;;;;;;;5.18;1.52;;;18.80;99.90;;;;;;6216186;28;20050;-76
2021/07/15 07:17:42;;;;;;;2.47;1.00;;;18.60;99.90;;;;;;6180296;28;20164;-77
2021/07/15 07:20:44;;;;;;;1.35;0.90;;;18.70;99.90;;;;;;6207075;28;20136;-77
2021/07/15 07:23:47;;;;;;;2.95;1.10;;;18.80;99.90;;;;;;6247136;28;20099;-77
2021/07/15 07:26:49;;;;;;;1.50;1.40;;;18.90;99.90;;;;;;6246843;28;20172;-77
2021/07/15 07:29:51;;;;;;;4.32;1.48;;;19.00;99.90;;;;;;6247440;28;20103;-77
2021/07/15 07:32:53;;;;;;;4.63;1.40;;;19.10;99.90;;;;;;6247176;28;20115;-77
2021/07/15 07:35:55;;;;;;;2.33;0.93;;;19.10;99.90;;;;;;6246616;28;20049;-76
2021/07/15 07:38:58;;;;;;;2.63;1.10;;;19.10;99.90;;;;;;6247119;28;20092;-76
2021/07/15 07:42:00;;;;;;;0.77;0.77;;;19.20;99.90;;;;;;6246940;28;20126;-76
2021/07/15 07:45:02;;;;;;;0.98;0.90;;;19.10;99.90;;;;;;6246644;28;20053;-77
2021/07/15 07:48:04;;;;;;;4.50;1.17;;;19.10;99.90;;;;;;6246453;28;20128;-76
2021/07/15 07:51:06;;;;;;;2.50;0.90;;;19.00;99.90;;;;;;6246284;28;20045;-76
2021/07/15 07:54:09;;;;;;;1.50;1.20;;;19.00;99.90;;;;;;6246478;28;20045;-76
2021/07/15 07:57:11;;;;;;;1.85;1.25;;;18.90;99.90;;;;;;6246870;28;20532;-76
2021/07/15 08:00:15;;;;;;;1.42;1.17;;;18.80;99.90;;;;;;6246198;28;20423;-76
2021/07/15 08:03:18;;;;;;;5.15;1.52;;;18.70;99.90;;;;;;6246721;28;20064;-76
2021/07/15 08:06:20;;;;;;;1.95;1.50;;;18.60;99.90;;;;;;6245983;28;20422;-76
2021/07/15 08:09:24;;;;;;;1.63;1.52;;;18.60;99.90;;;;;;6245966;28;20132;-76
2021/07/15 08:12:27;;;;;;;4.65;1.75;;;18.50;99.90;;;;;;6246746;28;20503;-76
2021/07/15 08:15:29;;;;;;;1.35;1.25;;;18.60;99.90;;;;;;6246099;28;20124;-76
2021/07/15 08:18:31;;;;;;;1.45;1.35;;;18.60;99.90;;;;;;6246237;28;20124;-77
2021/07/15 08:21:34;;;;;;;1.50;1.02;;;18.70;99.90;;;;;;6244888;28;20049;-76
2021/07/15 08:24:37;;;;;;;2.25;1.30;;;18.80;99.90;;;;;;6247769;28;20052;-76
2021/07/15 08:27:39;;;;;;;2.75;1.52;;;18.90;99.90;;;;;;6251017;28;20186;-76
2021/07/15 08:30:41;;;;;;;1.40;1.30;;;19.10;99.90;;;;;;6250925;28;20051;-76
2021/07/15 08:33:43;;;;;;;1.33;1.23;;;19.20;99.90;;;;;;6251346;28;20186;-76
2021/07/15 08:36:45;;;;;;;4.05;1.35;;;19.40;99.90;;;;;;6250537;28;20168;-76
2021/07/15 08:39:48;;;;;;;5.75;2.03;;;19.60;99.90;;;;;;6250876;28;20460;-76
2021/07/15 08:42:50;;;;;;;2.30;1.90;;;19.60;99.90;;;;;;6250392;28;20113;-76
2021/07/15 08:45:52;;;;;;;3.08;2.00;;;19.60;99.90;;;;;;6250823;28;20420;-77
2021/07/15 08:48:55;;;;;;;2.55;1.83;;;19.80;99.90;;;;;;6250417;28;20123;-76
2021/07/15 08:51:57;;;;;;;1.10;1.05;;;20.10;99.90;;;;;;6250807;28;20673;-76
2021/07/15 08:55:06;;;;;;;3.85;1.88;;;20.40;99.90;;;;;;6250248;28;20554;-76
2021/07/15 08:58:06;;;;;;;2.50;2.30;;;20.70;99.90;;;;;;6250752;28;20560;-75
2021/07/15 09:01:10;;;;;;;4.20;1.60;;;20.90;99.90;;;;;;6250831;28;20049;-76
2021/07/15 09:04:12;;;;;;;1.67;1.52;;;21.20;98.10;;;;;;6250189;28;20089;-76
2021/07/15 09:07:14;;;;;;;3.80;1.48;;;21.30;95.80;;;;;;6250249;28;20065;-76
2021/07/15 09:10:17;;;;;;;3.30;1.92;;;21.60;95.00;;;;;;6249872;28;20056;-76
2021/07/15 09:13:19;;;;;;;1.60;1.50;;;21.80;93.40;;;;;;6243083;28;20045;-76
2021/07/15 09:16:22;;;;;;;1.55;1.33;;;21.90;92.50;;;;;;6224968;28;20479;-76
2021/07/15 09:19:25;;;;;;;1.45;1.35;;;22.00;91.70;;;;;;6225585;28;20046;-76
2021/07/15 09:22:27;;;;;;;1.80;1.70;;;22.10;91.40;;;;;;6235064;28;20094;-76
2021/07/15 09:25:55;;;;;;;1.25;1.15;;;22.20;90.60;;;;;;6250049;28;20045;-77
2021/07/15 09:29:12;;;;;;;2.15;2.05;;;22.20;88.10;;;;;;6249738;28;20090;-76
2021/07/15 09:32:17;;;;;;;2.50;2.30;;;22.30;88.70;;;;;;6249334;28;20041;-76
2021/07/15 09:35:31;;;;;;;1.30;1.20;;;22.50;86.00;;;;;;6248949;28;20054;-75
2021/07/15 09:38:40;;;;;;;2.50;1.13;;;22.70;84.70;;;;;;6249288;28;20041;-75
2021/07/15 09:41:43;;;;;;;1.35;1.15;;;22.80;84.30;;;;;;6250052;28;20426;-75
2021/07/15 09:44:47;;;;;;;3.95;1.40;;;22.70;84.60;;;;;;6249298;28;20041;-75
2021/07/15 09:47:50;;;;;;;1.42;1.30;;;22.50;85.30;;;;;;6249051;28;20069;-76
2021/07/15 09:50:53;;;;;;;1.20;1.10;;;22.40;87.00;;;;;;6249117;28;20490;-76
2021/07/15 09:54:04;;;;;;;1.45;1.33;;;22.20;88.80;;;;;;6249521;28;20122;-75
2021/07/15 09:57:07;;;;;;;1.60;1.50;;;22.10;90.00;;;;;;6249392;28;20128;-75
2021/07/15 10:00:10;;;;;;;1.73;1.20;;;22.00;90.40;;;;;;6249063;28;20474;-75
2021/07/15 10:03:13;;;;;;;1.58;1.40;;;22.00;90.50;;;;;;6249018;28;20485;-75
2021/07/15 10:06:16;;;;;;;1.30;1.20;;;22.00;90.40;;;;;;6248620;28;20506;-75
2021/07/15 10:09:23;;;;;;;0.80;0.80;;;22.00;87.00;;;;;;6249750;28;20050;-75
2021/07/15 10:12:26;;;;;;;0.73;0.73;;;22.10;85.60;;;;;;6248831;28;20127;-75
2021/07/15 10:15:31;;;;;;;0.40;0.40;;;22.30;84.90;;;;;;6224480;28;20128;-75
2021/07/15 10:18:38;;;;;;;2.13;1.10;;;22.50;80.60;;;;;;6224145;28;20124;-75
2021/07/15 10:21:40;;;;;;;0.80;0.80;;;22.70;79.50;;;;;;6224628;28;20185;-76
2021/07/15 10:24:42;;;;;;;0.90;0.75;;;22.90;80.10;;;;;;6238129;28;20067;-75
2021/07/15 10:27:45;;;;;;;10.50;1.10;;;23.10;79.30;;;;;;6248315;28;20522;-75
2021/07/15 10:30:47;;;;;;;0.85;0.85;;;23.30;79.00;;;;;;6248530;28;20106;-75
2021/07/15 10:33:50;;;;;;;2.55;1.00;;;23.30;77.80;;;;;;6248676;28;20128;-75
2021/07/15 10:36:56;;;;;;;1.60;0.80;;;23.30;79.10;;;;;;6248208;28;20049;-75
2021/07/15 10:39:59;;;;;;;2.35;0.70;;;23.30;77.90;;;;;;6248313;28;20136;-75
2021/07/15 10:43:03;;;;;;;1.95;0.93;;;23.30;77.40;;;;;;6248267;28;20038;-75
2021/07/15 10:46:06;;;;;;;3.17;1.15;;;23.20;79.30;;;;;;6247881;28;20077;-75
2021/07/15 10:49:09;;;;;;;1.38;0.88;;;23.10;79.40;;;;;;6247191;28;20183;-75
2021/07/15 10:52:11;;;;;;;2.25;0.77;;;23.10;79.20;;;;;;6248094;28;20049;-75
2021/07/15 10:55:15;;;;;;;0.70;0.70;;;23.10;79.00;;;;;;6247775;28;20589;-75
2021/07/15 10:58:42;;;;;;;0.75;0.75;;;23.10;79.00;;;;;;6247500;28;20077;-75
2021/07/15 11:01:44;;;;;;;3.53;1.15;;;23.20;78.00;;;;;;6248337;28;20057;-75
2021/07/15 11:04:46;;;;;;;1.00;1.00;;;23.30;78.40;;;;;;6247682;28;20128;-75
2021/07/15 11:07:48;;;;;;;1.23;1.13;;;23.30;77.20;;;;;;6248663;28;20122;-75
2021/07/15 11:10:59;;;;;;;1.08;0.73;;;23.20;77.60;;;;;;6247302;28;20073;-74
2021/07/15 11:14:03;;;;;;;2.75;0.73;;;23.30;77.50;;;;;;6234817;28;20049;-75
2021/07/15 11:17:27;;;;;;;1.25;1.05;;;23.50;75.70;;;;;;6222814;28;20088;-74
2021/07/15 11:20:31;;;;;;;2.35;0.88;;;23.70;73.70;;;;;;6222539;28;20128;-75
2021/07/15 11:23:33;;;;;;;1.02;0.73;;;24.00;74.80;;;;;;6225300;28;20581;-75
2021/07/15 11:26:38;;;;;;;2.67;0.75;;;24.50;73.60;;;;;;6245520;28;20130;-75
2021/07/15 11:29:51;;;;;;;2.38;0.73;;;24.70;72.40;;;;;;6247733;28;20049;-75
2021/07/15 11:32:53;;;;;;;0.80;0.80;;;24.70;70.20;;;;;;6247014;28;20048;-74
2021/07/15 11:36:00;;;;;;;1.08;1.00;;;24.80;71.00;;;;;;6247008;28;20136;-73
2021/07/15 11:39:05;;;;;;;0.75;0.75;;;24.90;71.40;;;;;;6246972;28;20503;-74
2021/07/15 11:42:18;;;;;;;1.05;1.05;;;25.00;69.80;;;;;;6246892;28;20373;-74
2021/07/15 11:45:21;;;;;;;1.63;0.82;;;25.10;68.60;;;;;;6247368;28;20042;-74
2021/07/15 11:49:06;;;;;;;0.68;0.65;;;25.20;68.50;;;;;;6246351;28;20171;-75
2021/07/15 11:52:15;;;;;;;0.70;0.57;;;25.40;67.00;;;;;;6246887;28;20046;-74
2021/07/15 11:55:17;;;;;;;7.00;1.10;;;25.40;67.20;;;;;;6246876;28;20047;-74
2021/07/15 11:58:46;;;;;;;3.15;0.95;;;25.70;67.40;;;;;;6246324;28;20137;-74
2021/07/15 12:02:07;;;;;;;1.23;0.90;;;25.90;65.60;;;;;;6247155;28;20056;-74
2021/07/15 12:05:18;;;;;;;2.85;0.93;;;26.00;64.60;;;;;;6246699;28;20053;-74
2021/07/15 12:08:22;;;;;;;4.00;1.10;;;26.00;64.80;;;;;;6246536;28;20159;-74
2021/07/15 12:11:24;;;;;;;0.82;0.82;;;25.90;65.10;;;;;;6246150;28;20052;-74
2021/07/15 12:14:26;;;;;;;3.88;0.80;;;25.90;64.50;;;;;;6229720;28;20092;-74
2021/07/15 12:17:32;;;;;;;3.33;1.63;;;25.70;65.20;;;;;;6221875;28;20056;-75
2021/07/15 12:20:40;;;;;;;2.78;1.05;;;25.60;64.60;;;;;;6221847;28;20060;-75
2021/07/15 12:23:42;;;;;;;0.57;0.40;;;25.50;66.50;;;;;;6221924;28;20465;-75
2021/07/15 12:26:44;;;;;;;0.93;0.70;;;25.30;65.90;;;;;;6244416;28;20045;-75
2021/07/15 12:29:55;;;;;;;2.05;0.82;;;25.10;66.10;;;;;;6246803;28;20110;-75
2021/07/15 12:33:00;;;;;;;1.35;0.90;;;25.00;65.90;;;;;;6246124;28;20053;-76
2021/07/15 12:36:09;;;;;;;3.90;0.82;;;24.90;66.70;;;;;;6246192;28;20045;-76
2021/07/15 12:39:13;;;;;;;1.15;0.80;;;24.90;65.60;;;;;;6246590;28;20414;-76
2021/07/15 12:42:18;;;;;;;2.88;1.38;;;24.90;65.20;;;;;;6246193;28;20049;-76
2021/07/15 12:45:22;;;;;;;3.22;1.20;;;24.90;65.50;;;;;;6247190;28;20053;-75
2021/07/15 12:48:25;;;;;;;0.82;0.70;;;25.00;65.10;;;;;;6246215;28;20087;-77
2021/07/15 12:51:29;;;;;;;2.15;0.77;;;25.00;64.70;;;;;;6246045;28;20049;-76
2021/07/15 12:54:34;;;;;;;3.78;0.63;;;25.10;65.40;;;;;;6245980;28;20158;-76
2021/07/15 12:57:36;;;;;;;1.38;0.70;;;25.40;64.30;;;;;;6246439;28;20045;-75
2021/07/15 13:00:40;;;;;;;2.30;1.00;;;25.40;64.00;;;;;;6245783;28;20053;-76
2021/07/15 13:03:43;;;;;;;2.40;1.05;;;25.60;64.20;;;;;;6245872;28;20073;-75
2021/07/15 13:06:47;;;;;;;1.33;0.80;;;25.70;63.60;;;;;;6245418;28;20045;-75
2021/07/15 13:09:59;;;;;;;2.05;0.80;;;25.70;61.50;;;;;;6245849;28;20058;-75
2021/07/15 13:16:21;;;;;;;1.38;0.68;;;25.50;62.90;;;;;;6225649;28;20117;-75
2021/07/15 13:19:25;;;;;;;2.60;0.60;;;25.50;63.10;;;;;;6225988;28;20046;-75
2021/07/15 13:22:27;;;;;;;4.20;0.70;;;25.50;63.50;;;;;;6225644;28;20825;-75
2021/07/15 13:25:29;;;;;;;2.83;1.15;;;25.40;63.00;;;;;;6230528;28;20522;-75
2021/07/15 13:28:32;;;;;;;1.10;0.93;;;25.50;62.90;;;;;;6246830;28;20053;-75
2021/07/15 13:31:38;;;;;;;1.55;0.98;;;25.60;63.30;;;;;;6249919;28;20407;-75
2021/07/15 13:34:42;;;;;;;1.02;0.88;;;25.60;62.30;;;;;;6249965;28;20069;-76
2021/07/15 13:37:44;;;;;;;2.58;0.90;;;25.60;63.00;;;;;;6249917;28;20080;-76
2021/07/15 13:40:47;;;;;;;0.85;0.70;;;25.60;62.30;;;;;;6249704;28;20199;-75
2021/07/15 13:43:49;;;;;;;0.68;0.63;;;25.60;62.90;;;;;;6249686;28;20052;-75
2021/07/15 13:47:06;;;;;;;2.78;1.90;;;25.70;61.60;;;;;;6249414;28;20042;-75
2021/07/15 13:50:13;;;;;;;1.17;1.00;;;25.80;63.20;;;;;;6249666;28;20099;-75
2021/07/15 13:53:16;;;;;;;1.85;0.95;;;26.00;62.10;;;;;;6249763;28;20053;-75
2021/07/15 13:56:19;;;;;;;1.10;0.88;;;26.20;61.60;;;;;;6249367;28;20037;-75
2021/07/15 13:59:22;;;;;;;1.75;1.13;;;26.50;60.80;;;;;;6249307;28;20053;-75
2021/07/15 14:02:23;;;;;;;4.43;0.95;;;26.50;60.10;;;;;;6246314;28;20133;-76
2021/07/15 14:05:30;;;;;;;2.05;0.93;;;26.60;60.10;;;;;;6249529;28;20111;-76
2021/07/15 14:08:33;;;;;;;2.65;1.20;;;26.70;60.30;;;;;;6248820;28;20050;-76
2021/07/15 14:11:35;;;;;;;1.40;0.93;;;27.00;59.50;;;;;;6257197;23;20089;-74
2021/07/15 14:14:46;;;;;;;3.42;1.10;;;27.30;58.50;;;;;;6224891;28;20117;-75
2021/07/15 14:17:58;;;;;;;2.63;0.95;;;27.60;57.00;;;;;;6224888;28;20074;-75
2021/07/15 14:21:04;;;;;;;6.15;1.35;;;27.70;56.80;;;;;;6224610;28;20049;-74
2021/07/15 14:24:06;;;;;;;3.83;1.10;;;27.60;55.70;;;;;;6224392;28;20077;-74
2021/07/15 14:27:08;;;;;;;1.13;1.00;;;27.70;56.80;;;;;;6231521;28;20396;-74
2021/07/15 14:30:11;;;;;;;2.60;1.13;;;27.70;56.60;;;;;;6226456;28;20053;-74
2021/07/15 14:33:14;;;;;;;4.32;1.98;;;27.60;56.40;;;;;;6224685;28;20054;-74
2021/07/15 14:36:17;;;;;;;1.77;1.30;;;27.60;56.10;;;;;;6224075;28;20523;-74
2021/07/15 14:39:21;;;;;;;2.13;1.25;;;27.50;56.40;;;;;;6223763;28;20050;-75
2021/07/15 14:42:25;;;;;;;3.03;1.40;;;27.40;56.40;;;;;;6223825;28;20395;-75
2021/07/15 14:45:27;;;;;;;1.40;1.23;;;27.30;56.50;;;;;;6224220;28;20487;-74
2021/07/15 14:48:29;;;;;;;1.95;1.42;;;27.10;57.00;;;;;;6219643;28;20133;-75
2021/07/15 14:51:32;;;;;;;2.72;1.38;;;26.90;58.20;;;;;;6223380;28;20173;-75
2021/07/15 14:54:34;;;;;;;1.02;0.93;;;26.80;58.20;;;;;;6226831;28;20092;-75
2021/07/15 14:57:37;;;;;;;1.15;0.90;;;26.70;58.20;;;;;;6227710;28;20519;-75
2021/07/15 15:00:39;;;;;;;1.60;1.50;;;26.60;58.70;;;;;;6223993;28;20471;-75
2021/07/15 15:03:41;;;;;;;2.53;0.90;;;26.30;59.00;;;;;;6223334;28;20129;-75
2021/07/15 15:06:44;;;;;;;3.42;1.10;;;26.20;59.60;;;;;;6222651;28;20046;-75
2021/07/15 15:09:46;;;;;;;1.00;0.90;;;26.10;60.00;;;;;;6223361;28;20522;-75
2021/07/15 15:12:48;;;;;;;0.90;0.80;;;26.10;60.40;;;;;;6223030;28;20053;-75
2021/07/15 15:15:50;;;;;;;2.28;0.80;;;26.00;60.80;;;;;;6222868;28;20132;-75
2021/07/15 15:18:52;;;;;;;1.30;1.20;;;26.10;60.90;;;;;;6222418;28;20046;-75
2021/07/15 15:21:55;;;;;;;1.27;0.85;;;26.20;60.00;;;;;;6223422;28;20103;-75
2021/07/15 15:24:58;;;;;;;2.63;0.82;;;26.50;60.00;;;;;;6222479;28;20048;-75
2021/07/15 15:28:00;;;;;;;1.60;0.90;;;26.80;59.30;;;;;;6228305;28;20042;-75
2021/07/15 15:31:02;;;;;;;3.92;1.13;;;27.10;58.80;;;;;;6246342;28;20546;-75
2021/07/15 15:34:05;;;;;;;1.55;1.17;;;27.40;59.10;;;;;;6246627;28;20109;-75
2021/07/15 15:37:08;;;;;;;1.05;0.80;;;27.60;57.40;;;;;;6246574;28;20558;-75
2021/07/15 15:40:13;;;;;;;1.42;1.33;;;27.70;56.30;;;;;;6245861;28;20041;-75
2021/07/15 15:43:17;;;;;;;2.58;1.30;;;27.90;56.70;;;;;;6246197;28;20056;-76
2021/07/15 15:46:21;;;;;;;1.75;1.10;;;27.90;56.00;;;;;;6245825;28;20045;-75
2021/07/15 15:49:25;;;;;;;0.82;0.70;;;28.00;55.20;;;;;;6246512;28;20049;-76
2021/07/15 15:52:29;;;;;;;1.33;1.13;;;28.00;55.60;;;;;;6246123;28;20048;-75
2021/07/15 15:55:31;;;;;;;2.00;1.33;;;28.10;55.40;;;;;;6245908;28;20632;-75
2021/07/15 15:58:33;;;;;;;1.65;0.88;;;28.20;54.40;;;;;;6245747;28;20119;-75
2021/07/15 16:01:35;;;;;;;1.27;1.08;;;28.40;53.80;;;;;;6246223;28;20116;-76
2021/07/15 16:04:39;;;;;;;2.38;0.80;;;28.50;54.10;;;;;;6245913;28;20087;-76